Earl Gonsoulin — WDC3306 — position and weather

sailwx.info

Track history (hours):
 
Tides and Currents Weather Stations Pressure Air Temp Water Temp Dewpoint Dewpoint Depression Visibility Wind Speed Wind Dir Waves Ship Positions

Earl Gonsoulin

Owner: LeBeouf Bros. Towing, L.L.C., Houma, LA. More information available from US FCC via Universal Licensing System and Coast Guard Vessel Documentation Center.

Last reported at 2015-Feb-20 01:06 UTC. Time now 2015-Mar-01 20:57 UTC.
Position N 29°22' W 094°48'.
Warning: this ship's position is 9 days out of date.

Length 9 m.

Type: Towing. MMSI: 367005550.

Date/timePositionNaut miles runAvg speedWind from/ knotsBaromVisibWave heightAir tempDewpointWater temp
2015-Feb-20 01:06N 29°22' W 094°48'2 4.0
2015-Feb-20 00:31N 29°24' W 094°49'5 4.9
2015-Feb-19 23:33N 29°29' W 094°52'5 5.4
2015-Feb-19 22:34N 29°33' W 094°55'6 5.7
2015-Feb-19 21:33N 29°38' W 094°58'6 5.9
2015-Feb-19 20:34N 29°43' W 095°01'4 4.4
2015-Feb-19 19:33N 29°45' W 095°06'5 4.8
2015-Feb-19 18:34N 29°45' W 095°12'0 0.0
2015-Feb-19 17:33N 29°45' W 095°12'0 0.0
2015-Feb-19 16:34N 29°45' W 095°12'0 0.0
2015-Feb-19 15:33N 29°45' W 095°12'0 0.0
2015-Feb-19 14:33N 29°45' W 095°12'0 0.0
2015-Feb-19 13:33N 29°45' W 095°12'0 0.0
2015-Feb-19 12:33N 29°45' W 095°12'0 0.0
2015-Feb-19 11:34N 29°45' W 095°12'0 0.0
2015-Feb-19 10:34N 29°45' W 095°12'0 0.0
2015-Feb-19 09:34N 29°45' W 095°12'0 0.0
2015-Feb-19 08:34N 29°45' W 095°12'0 0.0
2015-Feb-19 07:34N 29°45' W 095°12'0 0.0
2015-Feb-19 06:34N 29°45' W 095°12'0 0.0
2015-Feb-19 05:34N 29°45' W 095°12'0 0.0
2015-Feb-19 04:34N 29°45' W 095°12'0 0.0
2015-Feb-19 03:34N 29°45' W 095°12'0 0.0
2015-Feb-19 02:34N 29°45' W 095°12'0 0.0
2015-Feb-19 01:34N 29°45' W 095°12'0 0.0
2015-Feb-19 00:34N 29°45' W 095°12'0 0.0
2015-Feb-18 23:34N 29°45' W 095°12'0 0.0
2015-Feb-18 22:34N 29°45' W 095°12'1 1.5
2015-Feb-18 21:34N 29°45' W 095°10'5 5.0
2015-Feb-18 20:34N 29°46' W 095°04'6 6.0
2015-Feb-18 19:33N 29°41' W 094°59'6 6.4
2015-Feb-18 18:33N 29°36' W 094°56'8 6.7
2015-Feb-18 17:25N 29°29' W 094°52'11 3.8
2015-Feb-18 14:29N 29°28' W 094°39'4 4.7
2015-Feb-18 13:33N 29°30' W 094°34'  
2015-Feb-12 08:04N 30°01' W 093°59'0 0.0
2015-Feb-12 07:33N 30°01' W 093°59'0 0.0
2015-Feb-12 06:32N 30°01' W 093°59'0 0.0
2015-Feb-12 05:06N 30°01' W 093°59'0 0.0
2015-Feb-12 04:32N 30°01' W 093°59'0 0.0
2015-Feb-12 03:30N 30°01' W 093°59'0 0.0
2015-Feb-12 02:32N 30°01' W 093°59'0 0.1
2015-Feb-12 01:32N 30°01' W 093°59'6 5.8
2015-Feb-12 00:27N 29°59' W 093°52'  
Track history (hours):
 
Tides and Currents Weather Stations Pressure Air Temp Water Temp Dewpoint Dewpoint Depression Visibility Wind Speed Wind Dir Waves Ship Positions

Earl Gonsoulin

Owner: LeBeouf Bros. Towing, L.L.C., Houma, LA. More information available from US FCC via Universal Licensing System and Coast Guard Vessel Documentation Center.

Last reported at 2015-Feb-20 01:06 UTC. Time now 2015-Mar-01 20:57 UTC.
Position N 29°22' W 094°48'.
Warning: this ship's position is 9 days out of date.

Length 9 m.

Type: Towing. MMSI: 367005550.

Date/timePositionNaut miles runAvg speedWind from/ knotsBaromVisibWave heightAir tempDewpointWater temp
2015-Feb-20 01:06N 29°22' W 094°48'2 4.0
2015-Feb-20 00:31N 29°24' W 094°49'5 4.9
2015-Feb-19 23:33N 29°29' W 094°52'5 5.4
2015-Feb-19 22:34N 29°33' W 094°55'6 5.7
2015-Feb-19 21:33N 29°38' W 094°58'6 5.9
2015-Feb-19 20:34N 29°43' W 095°01'4 4.4
2015-Feb-19 19:33N 29°45' W 095°06'5 4.8
2015-Feb-19 18:34N 29°45' W 095°12'0 0.0
2015-Feb-19 17:33N 29°45' W 095°12'0 0.0
2015-Feb-19 16:34N 29°45' W 095°12'0 0.0
2015-Feb-19 15:33N 29°45' W 095°12'0 0.0
2015-Feb-19 14:33N 29°45' W 095°12'0 0.0
2015-Feb-19 13:33N 29°45' W 095°12'0 0.0
2015-Feb-19 12:33N 29°45' W 095°12'0 0.0
2015-Feb-19 11:34N 29°45' W 095°12'0 0.0
2015-Feb-19 10:34N 29°45' W 095°12'0 0.0
2015-Feb-19 09:34N 29°45' W 095°12'0 0.0
2015-Feb-19 08:34N 29°45' W 095°12'0 0.0
2015-Feb-19 07:34N 29°45' W 095°12'0 0.0
2015-Feb-19 06:34N 29°45' W 095°12'0 0.0
2015-Feb-19 05:34N 29°45' W 095°12'0 0.0
2015-Feb-19 04:34N 29°45' W 095°12'0 0.0
2015-Feb-19 03:34N 29°45' W 095°12'0 0.0
2015-Feb-19 02:34N 29°45' W 095°12'0 0.0
2015-Feb-19 01:34N 29°45' W 095°12'0 0.0
2015-Feb-19 00:34N 29°45' W 095°12'0 0.0
2015-Feb-18 23:34N 29°45' W 095°12'0 0.0
2015-Feb-18 22:34N 29°45' W 095°12'1 1.5
2015-Feb-18 21:34N 29°45' W 095°10'5 5.0
2015-Feb-18 20:34N 29°46' W 095°04'6 6.0
2015-Feb-18 19:33N 29°41' W 094°59'6 6.4
2015-Feb-18 18:33N 29°36' W 094°56'8 6.7
2015-Feb-18 17:25N 29°29' W 094°52'11 3.8
2015-Feb-18 14:29N 29°28' W 094°39'4 4.7
2015-Feb-18 13:33N 29°30' W 094°34'  
2015-Feb-12 08:04N 30°01' W 093°59'0 0.0
2015-Feb-12 07:33N 30°01' W 093°59'0 0.0
2015-Feb-12 06:32N 30°01' W 093°59'0 0.0
2015-Feb-12 05:06N 30°01' W 093°59'0 0.0
2015-Feb-12 04:32N 30°01' W 093°59'0 0.0
2015-Feb-12 03:30N 30°01' W 093°59'0 0.0
2015-Feb-12 02:32N 30°01' W 093°59'0 0.1
2015-Feb-12 01:32N 30°01' W 093°59'6 5.8
2015-Feb-12 00:27N 29°59' W 093°52'  

Dump ship's entire track history